createdAt,value
2023-05-29T00:01:30.089Z,4.82
2023-05-29T00:03:56.798Z,4.82
2023-05-29T00:06:24.989Z,4.47
2023-05-29T00:08:51.519Z,4.30
2023-05-29T00:11:18.115Z,3.88
2023-05-29T00:13:44.805Z,4.25
2023-05-29T00:16:11.418Z,4.10
2023-05-29T00:18:46.757Z,4.70
2023-05-29T00:21:15.032Z,4.18
2023-05-29T00:23:41.743Z,4.65
2023-05-29T00:26:08.852Z,4.63
2023-05-29T00:28:37.427Z,3.60
2023-05-29T00:31:04.316Z,4.65
2023-05-29T00:33:31.038Z,4.35
2023-05-29T00:35:57.542Z,4.50
2023-05-29T00:38:24.033Z,4.65
2023-05-29T00:40:50.836Z,4.40
2023-05-29T00:43:17.412Z,4.47
2023-05-29T00:45:43.897Z,5.13
2023-05-29T00:48:16.626Z,4.40
2023-05-29T00:50:45.630Z,4.85
2023-05-29T00:53:12.655Z,4.03
2023-05-29T00:55:50.406Z,4.60
2023-05-29T00:58:17.237Z,4.70
2023-05-29T01:00:44.150Z,4.30
2023-05-29T01:03:15.931Z,4.60
2023-05-29T01:05:42.692Z,4.35
2023-05-29T01:08:10.647Z,4.35
2023-05-29T01:10:37.807Z,4.30
2023-05-29T01:13:12.608Z,4.68
2023-05-29T01:15:44.984Z,3.80
2023-05-29T01:18:23.772Z,4.53
2023-05-29T01:21:14.238Z,4.63
2023-05-29T01:24:12.524Z,3.72
2023-05-29T01:26:42.525Z,4.28
2023-05-29T01:29:19.231Z,4.72
2023-05-29T01:31:47.315Z,5.20
2023-05-29T01:34:14.096Z,5.25
2023-05-29T01:36:40.689Z,7.38
2023-05-29T01:39:08.854Z,9.00
2023-05-29T01:41:36.730Z,9.02
2023-05-29T01:44:10.881Z,7.50
2023-05-29T01:46:39.299Z,6.95
2023-05-29T01:49:12.308Z,6.32
2023-05-29T01:51:42.339Z,6.93
2023-05-29T01:54:11.904Z,7.68
2023-05-29T01:56:41.133Z,7.70
2023-05-29T01:59:09.182Z,8.27
2023-05-29T02:01:35.919Z,9.43
2023-05-29T02:04:02.554Z,8.02
2023-05-29T02:06:29.064Z,8.45
2023-05-29T02:08:55.752Z,8.90
2023-05-29T02:11:22.800Z,9.73
2023-05-29T02:13:49.551Z,9.52
2023-05-29T02:16:16.435Z,9.23
2023-05-29T02:18:44.513Z,7.53
2023-05-29T02:21:11.104Z,7.40
2023-05-29T02:23:39.593Z,7.25
2023-05-29T02:26:06.390Z,6.28
2023-05-29T02:28:35.916Z,5.60
2023-05-29T02:31:04.009Z,5.88
2023-05-29T02:33:30.884Z,5.20
2023-05-29T02:36:00.395Z,5.55
2023-05-29T02:38:26.975Z,5.75
2023-05-29T02:40:53.897Z,5.60
2023-05-29T02:43:23.624Z,5.43
2023-05-29T02:45:50.325Z,5.40
2023-05-29T02:48:16.914Z,4.93
2023-05-29T02:50:43.387Z,4.38
2023-05-29T02:53:09.926Z,4.93
2023-05-29T02:55:36.946Z,5.07
2023-05-29T02:58:03.837Z,5.18
2023-05-29T03:00:30.922Z,4.82
2023-05-29T03:02:57.765Z,4.97
2023-05-29T03:05:24.414Z,4.88
2023-05-29T03:07:51.042Z,5.22
2023-05-29T03:10:18.195Z,4.63
2023-05-29T03:12:53.537Z,4.80
2023-05-29T03:15:22.769Z,4.35
2023-05-29T03:17:49.299Z,5.35
2023-05-29T03:20:16.749Z,4.68
2023-05-29T03:22:43.464Z,4.78
2023-05-29T03:25:10.369Z,4.90
2023-05-29T03:27:36.947Z,4.93
2023-05-29T03:30:11.009Z,5.20
2023-05-29T03:32:37.553Z,4.97
2023-05-29T03:35:05.131Z,4.70
2023-05-29T03:37:31.646Z,4.80
2023-05-29T03:39:58.132Z,5.20
2023-05-29T03:42:24.646Z,4.55
2023-05-29T03:44:51.197Z,5.00
2023-05-29T03:47:17.809Z,5.00
2023-05-29T03:49:47.348Z,5.07
2023-05-29T03:52:13.901Z,4.95
2023-05-29T03:54:40.432Z,5.25
2023-05-29T03:57:10.007Z,5.40
2023-05-29T03:59:36.561Z,4.45
2023-05-29T04:02:03.705Z,6.10
2023-05-29T04:04:30.483Z,5.00
2023-05-29T04:06:57.724Z,5.53
2023-05-29T04:09:24.257Z,5.10
2023-05-29T04:11:52.860Z,4.35
2023-05-29T04:14:20.614Z,4.57
2023-05-29T04:16:47.364Z,5.15
2023-05-29T04:19:24.217Z,6.38
2023-05-29T04:22:05.931Z,5.63
2023-05-29T04:24:33.972Z,5.22
2023-05-29T04:27:01.677Z,6.10
2023-05-29T04:29:35.685Z,5.53
2023-05-29T04:32:04.243Z,5.13
2023-05-29T04:34:44.366Z,5.28
2023-05-29T04:37:10.902Z,5.40
2023-05-29T04:39:37.438Z,5.63
2023-05-29T04:42:04.336Z,5.25
2023-05-29T04:44:30.897Z,5.57
2023-05-29T04:47:03.972Z,5.80
2023-05-29T04:49:30.677Z,5.40
2023-05-29T04:51:57.190Z,5.70
2023-05-29T04:54:24.296Z,6.32
2023-05-29T04:56:50.816Z,5.57
2023-05-29T04:59:17.303Z,4.90
2023-05-29T05:01:44.989Z,5.80
2023-05-29T05:04:11.748Z,5.82
2023-05-29T05:06:38.701Z,6.45
2023-05-29T05:09:10.983Z,5.65
2023-05-29T05:11:37.618Z,6.00
2023-05-29T05:14:04.238Z,5.20
2023-05-29T05:16:30.944Z,5.53
2023-05-29T05:18:57.537Z,5.70
2023-05-29T05:21:24.111Z,5.47
2023-05-29T05:23:57.927Z,5.53
2023-05-29T05:26:27.659Z,5.85
2023-05-29T05:28:54.286Z,5.60
2023-05-29T05:31:21.167Z,5.78
2023-05-29T05:33:47.701Z,4.82
2023-05-29T05:36:18.198Z,5.47
2023-05-29T05:38:44.862Z,5.93
2023-05-29T05:41:11.413Z,5.32
2023-05-29T05:43:41.116Z,5.65
2023-05-29T05:46:07.809Z,5.10
2023-05-29T05:48:34.515Z,4.93
2023-05-29T05:51:01.038Z,5.15
2023-05-29T05:53:27.601Z,6.28
2023-05-29T05:55:54.715Z,5.60
2023-05-29T05:58:21.433Z,6.22
2023-05-29T06:00:48.395Z,5.70
2023-05-29T06:03:15.306Z,6.45
2023-05-29T06:05:42.667Z,5.95
2023-05-29T06:08:09.754Z,6.18
2023-05-29T06:10:37.101Z,5.75
2023-05-29T06:13:07.783Z,5.82
2023-05-29T06:15:34.568Z,6.30
2023-05-29T06:18:01.589Z,6.05
2023-05-29T06:20:34.546Z,5.43
2023-05-29T06:23:01.426Z,4.80
2023-05-29T06:25:33.965Z,5.65
2023-05-29T06:28:03.974Z,5.20
2023-05-29T06:30:30.559Z,4.95
2023-05-29T06:33:08.482Z,4.93
2023-05-29T06:35:35.040Z,5.05
2023-05-29T06:38:01.651Z,4.70
2023-05-29T06:40:28.122Z,4.70
2023-05-29T06:43:02.182Z,5.68
2023-05-29T06:45:28.728Z,6.10
2023-05-29T06:47:56.360Z,5.30
2023-05-29T06:50:23.679Z,4.85
2023-05-29T06:52:50.440Z,4.80
2023-05-29T06:55:17.641Z,4.78
2023-05-29T06:57:47.105Z,5.10
2023-05-29T07:00:14.426Z,4.50
2023-05-29T07:02:41.159Z,4.82
2023-05-29T07:05:08.377Z,4.80
2023-05-29T07:07:34.869Z,4.90
2023-05-29T07:10:03.805Z,4.50
2023-05-29T07:12:30.998Z,4.75
2023-05-29T07:14:58.507Z,4.88
2023-05-29T07:17:25.152Z,5.25
2023-05-29T07:19:51.785Z,4.30
2023-05-29T07:22:18.383Z,4.32
2023-05-29T07:24:45.035Z,4.60
2023-05-29T07:27:11.609Z,4.85
2023-05-29T07:29:38.140Z,5.00
2023-05-29T07:32:05.068Z,5.00
2023-05-29T07:34:31.671Z,4.68
2023-05-29T07:37:07.532Z,4.53
2023-05-29T07:39:36.005Z,4.07
2023-05-29T07:42:20.650Z,4.28
2023-05-29T07:44:50.144Z,3.90
2023-05-29T07:47:17.500Z,4.60
2023-05-29T07:49:46.594Z,4.20
2023-05-29T07:52:13.073Z,4.18
2023-05-29T07:54:44.856Z,4.28
2023-05-29T07:57:11.534Z,4.45
2023-05-29T07:59:42.223Z,5.07
2023-05-29T08:02:09.752Z,4.55
2023-05-29T08:04:36.868Z,4.13
2023-05-29T08:07:07.024Z,4.65
2023-05-29T08:09:36.731Z,4.50
2023-05-29T08:12:03.630Z,4.93
2023-05-29T08:14:30.205Z,4.57
2023-05-29T08:16:56.803Z,3.78
2023-05-29T08:19:24.469Z,4.72
2023-05-29T08:21:51.004Z,4.57
2023-05-29T08:24:17.860Z,3.97
2023-05-29T08:26:44.769Z,4.05
2023-05-29T08:29:11.992Z,3.58
2023-05-29T08:31:38.583Z,3.78
2023-05-29T08:34:05.160Z,4.30
2023-05-29T08:36:32.548Z,4.28
2023-05-29T08:38:59.375Z,3.75
2023-05-29T08:41:50.674Z,4.40
2023-05-29T08:44:25.948Z,4.72
2023-05-29T08:46:57.281Z,3.80
2023-05-29T08:49:24.630Z,3.67
2023-05-29T09:00:09.803Z,3.50
2023-05-29T09:02:38.071Z,3.92
2023-05-29T09:05:05.067Z,3.83
2023-05-29T09:07:32.042Z,4.00
2023-05-29T09:09:59.740Z,3.75
2023-05-29T09:12:26.724Z,3.90
2023-05-29T09:14:53.334Z,3.70
2023-05-29T09:17:20.579Z,3.67
2023-05-29T09:19:49.186Z,3.33
2023-05-29T09:22:16.734Z,3.97
2023-05-29T09:24:48.941Z,3.70
2023-05-29T09:27:19.409Z,3.50
2023-05-29T09:29:47.667Z,4.28
2023-05-29T09:32:20.239Z,3.85
2023-05-29T09:34:54.285Z,3.83
2023-05-29T09:37:23.477Z,4.30
2023-05-29T09:39:52.747Z,3.92
2023-05-29T09:42:19.335Z,4.05
2023-05-29T09:44:52.403Z,4.22
2023-05-29T09:47:21.244Z,4.20
2023-05-29T09:49:48.334Z,4.38
2023-05-29T09:52:16.730Z,4.47
2023-05-29T09:54:47.334Z,3.88
2023-05-29T09:57:15.868Z,4.03
2023-05-29T09:59:46.068Z,4.18
2023-05-29T10:02:14.901Z,4.05
2023-05-29T10:04:41.580Z,3.90
2023-05-29T10:07:28.769Z,3.85
2023-05-29T10:10:06.161Z,3.80
2023-05-29T10:12:40.526Z,3.22
2023-05-29T10:15:15.980Z,3.78
2023-05-29T10:17:48.684Z,3.92
2023-05-29T10:20:18.111Z,3.72
2023-05-29T10:22:51.235Z,3.85
2023-05-29T10:25:22.464Z,3.70
2023-05-29T10:27:50.432Z,3.03
2023-05-29T10:30:42.531Z,3.35
2023-05-29T10:33:41.875Z,3.90
2023-05-29T10:36:15.625Z,3.30
2023-05-29T10:38:46.470Z,3.47
2023-05-29T10:41:28.299Z,3.50
2023-05-29T10:43:56.732Z,3.22
2023-05-29T10:46:54.605Z,4.10
2023-05-29T10:49:22.604Z,3.58
2023-05-29T10:51:50.294Z,3.40
2023-05-29T10:54:19.858Z,3.35
2023-05-29T10:56:56.678Z,3.30
2023-05-29T10:59:27.738Z,3.13
2023-05-29T11:01:56.345Z,3.40
2023-05-29T11:04:22.951Z,2.72
2023-05-29T11:06:49.557Z,2.90
2023-05-29T11:09:40.903Z,2.80
2023-05-29T11:12:34.748Z,3.40
2023-05-29T11:15:08.720Z,3.05
2023-05-29T11:17:37.960Z,3.28
2023-05-29T11:20:08.994Z,3.38
2023-05-29T11:22:41.445Z,3.38
2023-05-29T11:25:08.486Z,3.30
2023-05-29T11:27:36.705Z,3.45
2023-05-29T11:30:06.701Z,3.78
2023-05-29T11:32:37.783Z,3.92
2023-05-29T11:35:11.565Z,3.40
2023-05-29T11:37:49.494Z,3.53
2023-05-29T11:40:16.343Z,3.28
2023-05-29T11:42:45.693Z,3.88
2023-05-29T11:45:16.534Z,3.25
2023-05-29T11:47:57.524Z,3.67
2023-05-29T11:50:27.790Z,3.65
2023-05-29T11:52:55.126Z,3.78
2023-05-29T11:55:24.128Z,3.70
2023-05-29T11:57:56.848Z,3.55
2023-05-29T12:00:23.520Z,3.47
2023-05-29T12:02:58.898Z,3.60
2023-05-29T12:05:25.618Z,3.65
2023-05-29T12:08:02.995Z,3.95
2023-05-29T12:10:32.551Z,3.53
2023-05-29T12:13:02.118Z,3.88
2023-05-29T12:15:28.957Z,4.10
2023-05-29T12:18:01.023Z,3.20
2023-05-29T12:20:27.955Z,3.17
2023-05-29T12:23:09.557Z,3.17
2023-05-29T12:25:54.544Z,3.97
2023-05-29T12:28:22.680Z,3.03
2023-05-29T12:30:53.308Z,3.20
2023-05-29T12:33:31.054Z,3.30
2023-05-29T12:36:13.047Z,3.40
2023-05-29T12:38:51.930Z,3.90
2023-05-29T12:41:35.255Z,3.75
2023-05-29T12:44:04.772Z,3.22
2023-05-29T12:46:47.882Z,3.67
2023-05-29T12:49:24.607Z,3.40
2023-05-29T12:51:53.341Z,4.28
2023-05-29T12:54:19.887Z,3.30
2023-05-29T12:56:47.442Z,3.35
2023-05-29T12:59:14.119Z,3.58
2023-05-29T13:01:41.612Z,3.72
2023-05-29T13:04:09.048Z,3.47
2023-05-29T13:06:39.699Z,3.40
2023-05-29T13:09:15.195Z,3.50
2023-05-29T13:11:41.963Z,3.42
2023-05-29T13:14:08.529Z,3.47
2023-05-29T13:16:36.518Z,3.67
2023-05-29T13:19:03.280Z,4.03
2023-05-29T13:21:29.820Z,3.35
2023-05-29T13:23:56.423Z,3.70
2023-05-29T13:26:23.134Z,3.50
2023-05-29T13:28:49.975Z,4.25
2023-05-29T13:31:16.535Z,4.22
2023-05-29T13:33:43.016Z,3.38
2023-05-29T13:36:09.672Z,4.18
2023-05-29T13:38:36.305Z,3.33
2023-05-29T13:41:02.963Z,3.80
2023-05-29T13:43:42.329Z,3.58
2023-05-29T13:46:11.443Z,4.05
2023-05-29T13:48:38.020Z,4.40
2023-05-29T13:51:04.512Z,3.72
2023-05-29T13:53:31.070Z,3.72
2023-05-29T13:55:57.911Z,3.40
2023-05-29T13:58:24.639Z,2.90
2023-05-29T14:00:51.130Z,3.70
2023-05-29T14:03:18.755Z,3.60
2023-05-29T14:05:45.401Z,3.42
2023-05-29T14:08:11.880Z,3.88
2023-05-29T14:10:38.429Z,3.65
2023-05-29T14:13:04.951Z,3.22
2023-05-29T14:15:41.156Z,4.05
2023-05-29T14:18:13.379Z,2.92
2023-05-29T14:20:42.909Z,3.40
2023-05-29T14:23:14.711Z,3.75
2023-05-29T14:25:41.191Z,3.38
2023-05-29T14:28:07.744Z,3.20
2023-05-29T14:30:34.522Z,3.60
2023-05-29T14:33:01.297Z,3.40
2023-05-29T14:35:27.843Z,3.80
2023-05-29T14:37:57.585Z,3.83
2023-05-29T14:40:24.740Z,4.05
2023-05-29T14:42:51.298Z,3.90
2023-05-29T14:45:18.551Z,4.00
2023-05-29T14:47:52.480Z,3.00
2023-05-29T14:50:24.294Z,3.22
2023-05-29T14:52:52.806Z,3.53
2023-05-29T14:55:19.427Z,3.92
2023-05-29T14:57:45.996Z,3.28
2023-05-29T15:00:13.158Z,3.53
2023-05-29T15:02:40.846Z,3.40
2023-05-29T15:05:08.181Z,2.92
2023-05-29T15:07:35.530Z,4.00
2023-05-29T15:10:02.394Z,3.55
2023-05-29T15:12:32.570Z,3.70
2023-05-29T15:14:59.114Z,3.78
2023-05-29T15:17:25.745Z,4.30
2023-05-29T15:19:52.312Z,4.00
2023-05-29T15:22:18.857Z,3.97
2023-05-29T15:24:45.345Z,3.05
2023-05-29T15:27:11.947Z,3.50
2023-05-29T15:29:42.625Z,4.00
2023-05-29T15:32:09.648Z,3.95
2023-05-29T15:34:37.471Z,3.40
2023-05-29T15:37:04.276Z,3.40
2023-05-29T15:39:30.756Z,3.55
2023-05-29T15:41:57.254Z,3.88
2023-05-29T15:44:23.793Z,3.90
2023-05-29T15:46:50.670Z,3.50
2023-05-29T15:49:20.032Z,3.80
2023-05-29T15:51:46.539Z,3.40
2023-05-29T15:54:13.022Z,4.13
2023-05-29T15:56:39.618Z,3.42
2023-05-29T15:59:06.436Z,4.60
2023-05-29T16:01:33.053Z,4.20
2023-05-29T16:03:59.686Z,3.55
2023-05-29T16:06:26.240Z,3.08
2023-05-29T16:08:52.765Z,3.78
2023-05-29T16:11:23.941Z,3.78
2023-05-29T16:13:50.499Z,3.22
2023-05-29T16:16:19.745Z,3.30
2023-05-29T16:18:46.314Z,3.72
2023-05-29T16:21:13.178Z,3.90
2023-05-29T16:23:39.767Z,3.53
2023-05-29T16:26:06.475Z,3.42
2023-05-29T16:28:39.498Z,3.70
2023-05-29T16:31:06.721Z,3.50
2023-05-29T16:33:33.405Z,6.68
2023-05-29T16:36:01.302Z,3.70
2023-05-29T16:38:27.858Z,3.65
2023-05-29T16:40:54.336Z,3.35
2023-05-29T16:43:21.013Z,3.08
2023-05-29T16:45:51.382Z,2.92
2023-05-29T16:48:17.963Z,3.00
2023-05-29T16:50:46.900Z,3.60
2023-05-29T16:53:13.648Z,3.13
2023-05-29T16:55:40.132Z,2.95
2023-05-29T16:58:06.634Z,3.40
2023-05-29T17:00:33.550Z,2.63
2023-05-29T17:03:00.173Z,3.60
2023-05-29T17:05:26.757Z,3.88
2023-05-29T17:07:53.301Z,3.60
2023-05-29T17:10:19.958Z,3.63
2023-05-29T17:12:47.028Z,3.30
2023-05-29T17:15:19.789Z,3.45
2023-05-29T17:17:54.389Z,3.38
2023-05-29T17:20:36.638Z,3.55
2023-05-29T17:23:08.348Z,2.90
2023-05-29T17:25:34.860Z,3.45
2023-05-29T17:28:01.685Z,3.10
2023-05-29T17:30:28.388Z,3.28
2023-05-29T17:32:55.145Z,3.00
2023-05-29T17:35:21.732Z,2.90
2023-05-29T17:37:50.583Z,3.20
2023-05-29T17:40:17.150Z,3.05
2023-05-29T17:42:43.630Z,3.95
2023-05-29T17:45:10.837Z,3.45
2023-05-29T17:47:37.584Z,3.92
2023-05-29T17:50:04.538Z,3.65
2023-05-29T17:52:31.104Z,3.67
2023-05-29T17:54:57.674Z,3.35
2023-05-29T17:57:24.240Z,4.40
2023-05-29T17:59:50.852Z,3.28
2023-05-29T18:02:17.408Z,3.03
2023-05-29T18:04:44.913Z,3.55
2023-05-29T18:07:13.081Z,3.03
2023-05-29T18:09:42.177Z,2.97
2023-05-29T18:12:08.885Z,3.10
2023-05-29T18:14:35.517Z,3.30
2023-05-29T18:17:02.110Z,3.03
2023-05-29T18:19:28.921Z,3.25
2023-05-29T18:22:07.357Z,3.45
2023-05-29T18:24:37.353Z,3.47
2023-05-29T18:27:04.177Z,2.97
2023-05-29T18:29:33.050Z,3.17
2023-05-29T18:32:00.776Z,2.90
2023-05-29T18:34:27.358Z,3.33
2023-05-29T18:36:56.560Z,3.80
2023-05-29T18:39:31.268Z,3.60
2023-05-29T18:41:57.859Z,3.30
2023-05-29T18:44:24.418Z,3.00
2023-05-29T18:46:51.992Z,3.10
2023-05-29T18:49:18.624Z,3.40
2023-05-29T18:51:45.129Z,3.13
2023-05-29T18:54:11.746Z,3.17
2023-05-29T18:56:38.327Z,3.15
2023-05-29T18:59:04.917Z,2.88
2023-05-29T19:01:32.910Z,2.90
2023-05-29T19:04:01.366Z,3.10
2023-05-29T19:06:28.678Z,3.15
2023-05-29T19:08:55.190Z,3.22
2023-05-29T19:11:22.701Z,3.28
2023-05-29T19:13:49.250Z,3.17
2023-05-29T19:16:16.146Z,3.22
2023-05-29T19:18:42.845Z,3.08
2023-05-29T19:21:09.681Z,3.35
2023-05-29T19:23:39.218Z,3.40
2023-05-29T19:26:06.416Z,3.33
2023-05-29T19:28:32.978Z,3.55
2023-05-29T19:30:59.607Z,3.50
2023-05-29T19:33:26.907Z,3.17
2023-05-29T19:35:53.546Z,3.50
2023-05-29T19:38:23.941Z,2.92
2023-05-29T19:40:50.458Z,3.38
2023-05-29T19:43:17.242Z,3.50
2023-05-29T19:45:47.046Z,3.03
2023-05-29T19:48:18.652Z,2.92
2023-05-29T19:50:45.247Z,3.92
2023-05-29T19:53:15.706Z,3.63
2023-05-29T19:55:45.642Z,3.08
2023-05-29T19:58:12.140Z,3.90
2023-05-29T20:00:38.692Z,3.00
2023-05-29T20:03:05.435Z,3.38
2023-05-29T20:05:32.061Z,3.30
2023-05-29T20:07:59.619Z,3.28
2023-05-29T20:10:26.264Z,3.17
2023-05-29T20:12:52.820Z,2.83
2023-05-29T20:15:19.612Z,3.25
2023-05-29T20:17:46.777Z,3.45
2023-05-29T20:20:13.729Z,3.30
2023-05-29T20:22:40.428Z,3.20
2023-05-29T20:25:07.406Z,2.92
2023-05-29T20:27:33.974Z,3.25
2023-05-29T20:30:01.653Z,2.88
2023-05-29T20:32:30.790Z,3.20
2023-05-29T20:35:04.995Z,3.30
2023-05-29T20:37:33.978Z,3.08
2023-05-29T20:40:01.236Z,4.00
2023-05-29T20:42:27.799Z,3.58
2023-05-29T20:44:54.593Z,3.20
2023-05-29T20:47:22.316Z,3.72
2023-05-29T20:49:48.856Z,3.50
2023-05-29T20:52:15.378Z,3.22
2023-05-29T20:54:45.014Z,3.47
2023-05-29T20:57:23.581Z,3.55
2023-05-29T20:59:50.213Z,3.53
2023-05-29T21:02:17.017Z,3.00
2023-05-29T21:04:43.725Z,3.30
2023-05-29T21:07:11.721Z,3.33
2023-05-29T21:09:40.994Z,3.80
2023-05-29T21:12:08.187Z,3.55
2023-05-29T21:14:34.953Z,3.05
2023-05-29T21:17:01.931Z,3.20
2023-05-29T21:19:28.589Z,3.42
2023-05-29T21:21:55.195Z,3.72
2023-05-29T21:24:27.649Z,3.40
2023-05-29T21:26:54.183Z,3.30
2023-05-29T21:29:23.448Z,3.55
2023-05-29T21:31:50.100Z,2.65
2023-05-29T21:34:16.738Z,3.13
2023-05-29T21:36:45.573Z,2.53
2023-05-29T21:39:12.635Z,3.78
2023-05-29T21:41:39.258Z,3.42
2023-05-29T21:44:08.736Z,3.35
2023-05-29T21:46:35.650Z,3.40
2023-05-29T21:49:03.383Z,3.25
2023-05-29T21:51:34.030Z,3.30
2023-05-29T21:54:00.578Z,3.10
2023-05-29T21:56:27.490Z,3.90
2023-05-29T21:58:54.001Z,3.30
2023-05-29T22:01:21.559Z,3.22
2023-05-29T22:03:48.679Z,2.80
2023-05-29T22:06:15.253Z,3.40
2023-05-29T22:08:47.785Z,3.38
2023-05-29T22:11:15.846Z,3.80
2023-05-29T22:13:42.435Z,2.72
2023-05-29T22:16:09.107Z,3.00
2023-05-29T22:18:38.127Z,3.20
2023-05-29T22:21:10.058Z,3.75
2023-05-29T22:23:36.639Z,3.78
2023-05-29T22:26:03.185Z,3.17
2023-05-29T22:28:30.263Z,3.15
2023-05-29T22:30:58.042Z,3.40
2023-05-29T22:33:27.806Z,3.08
2023-05-29T22:35:55.207Z,3.25
2023-05-29T22:38:21.810Z,3.03
2023-05-29T22:40:48.578Z,3.45
2023-05-29T22:43:15.510Z,3.97
2023-05-29T22:45:49.027Z,3.17
2023-05-29T22:48:24.544Z,3.65
2023-05-29T22:50:51.083Z,3.67
2023-05-29T22:53:19.122Z,2.80
2023-05-29T22:55:48.642Z,3.20
2023-05-29T22:58:16.466Z,3.55
2023-05-29T23:00:45.535Z,3.45
2023-05-29T23:03:13.266Z,3.50
2023-05-29T23:05:43.480Z,3.35
2023-05-29T23:08:10.523Z,3.55
2023-05-29T23:10:37.384Z,3.72
2023-05-29T23:13:04.939Z,3.70
2023-05-29T23:15:32.535Z,3.00
2023-05-29T23:17:59.522Z,3.42
2023-05-29T23:20:31.731Z,3.17
2023-05-29T23:22:58.261Z,3.30
2023-05-29T23:25:27.175Z,4.15
2023-05-29T23:27:56.427Z,3.13
2023-05-29T23:30:23.892Z,3.95
2023-05-29T23:32:50.544Z,3.15
2023-05-29T23:35:22.487Z,3.53
2023-05-29T23:38:00.442Z,3.03
2023-05-29T23:40:26.973Z,3.55
2023-05-29T23:42:53.534Z,3.60
2023-05-29T23:45:20.125Z,3.70
2023-05-29T23:47:46.732Z,3.50
2023-05-29T23:50:13.510Z,3.38
2023-05-29T23:52:48.242Z,3.20
2023-05-29T23:55:15.680Z,3.50
2023-05-29T23:57:42.622Z,3.17
